Time;durP1;ratioP1;P1;durP2;ratioP2;P2;SDS_P1;SDS_P2;PMS_P1;PMS_P2;Temp;Humidity;BMP_temperature;BMP_pressure;BME280_temperature;BME280_humidity;BME280_pressure;Samples;Min_cycle;Max_cycle;Signal;HPM_P1;HPM_P2
2021/05/02 00:01:17;;;;;;;4.03;1.80;;;16.10;96.70;;;;;;4929752;28;20043;-78
2021/05/02 00:03:46;;;;;;;4.25;1.77;;;16.00;96.70;;;;;;4935647;28;20059;-77
2021/05/02 00:06:16;;;;;;;3.55;1.50;;;15.90;96.70;;;;;;4924051;29;20073;-78
2021/05/02 00:08:45;;;;;;;4.70;1.75;;;15.80;96.70;;;;;;4928031;29;20055;-78
2021/05/02 00:11:14;;;;;;;9.20;1.90;;;15.60;96.70;;;;;;4913927;29;20055;-78
2021/05/02 00:13:44;;;;;;;5.85;1.60;;;15.50;96.70;;;;;;4928057;29;20131;-78
2021/05/02 00:16:15;;;;;;;10.95;2.13;;;15.40;96.70;;;;;;4926593;29;20063;-79
2021/05/02 00:18:46;;;;;;;7.85;1.73;;;15.30;96.70;;;;;;4928856;29;20175;-78
2021/05/02 00:21:13;;;;;;;11.73;2.10;;;15.30;96.70;;;;;;4932895;29;20515;-77
2021/05/02 00:23:41;;;;;;;12.40;2.22;;;15.20;96.70;;;;;;4928322;29;20047;-78
2021/05/02 00:26:10;;;;;;;7.93;1.65;;;15.10;96.70;;;;;;4922759;29;20036;-78
2021/05/02 00:28:43;;;;;;;10.65;1.92;;;15.00;96.70;;;;;;4911201;29;20040;-78
2021/05/02 00:31:13;;;;;;;10.32;2.72;;;14.90;96.70;;;;;;4926907;29;20421;-79
2021/05/02 00:33:43;;;;;;;12.18;1.70;;;14.90;96.70;;;;;;4922678;29;20050;-78
2021/05/02 00:36:11;;;;;;;13.57;1.92;;;14.80;96.70;;;;;;4920807;29;20443;-78
2021/05/02 00:38:41;;;;;;;15.68;2.30;;;14.80;96.70;;;;;;4925611;29;20066;-78
2021/05/02 00:41:11;;;;;;;12.05;2.53;;;14.80;96.70;;;;;;4920770;29;20161;-78
2021/05/02 00:43:48;;;;;;;9.75;1.92;;;14.80;96.70;;;;;;4923950;29;20143;-78
2021/05/02 00:47:05;;;;;;;8.73;1.80;;;14.80;96.70;;;;;;4933777;29;20514;-77
2021/05/02 00:49:38;;;;;;;9.82;1.65;;;14.80;96.70;;;;;;4911499;29;20051;-77
2021/05/02 00:52:30;;;;;;;10.82;1.95;;;14.80;96.70;;;;;;4926547;29;20062;-78
2021/05/02 00:55:05;;;;;;;8.93;1.92;;;14.80;96.70;;;;;;4923593;29;20048;-78
2021/05/02 00:57:44;;;;;;;13.85;2.53;;;14.80;96.70;;;;;;4929022;29;20521;-79
2021/05/02 01:00:15;;;;;;;15.40;2.40;;;14.80;96.70;;;;;;4927552;29;20469;-78
2021/05/02 01:02:49;;;;;;;11.65;2.58;;;14.90;96.70;;;;;;4924931;29;20145;-78
2021/05/02 01:05:21;;;;;;;13.52;2.30;;;14.90;96.70;;;;;;4921086;29;20051;-78
2021/05/02 01:07:55;;;;;;;13.05;2.05;;;14.80;96.70;;;;;;4931912;29;20054;-78
2021/05/02 01:10:24;;;;;;;14.15;2.53;;;14.80;96.70;;;;;;4923649;29;20130;-78
2021/05/02 01:12:55;;;;;;;13.05;2.58;;;14.90;96.70;;;;;;4924822;29;20048;-78
2021/05/02 01:15:27;;;;;;;12.00;1.80;;;14.90;96.70;;;;;;4926550;29;20044;-78
2021/05/02 01:18:00;;;;;;;9.40;2.33;;;14.80;96.70;;;;;;4924535;29;20052;-78
2021/05/02 01:20:33;;;;;;;14.57;2.55;;;14.80;96.70;;;;;;4926911;29;20138;-78
2021/05/02 01:23:08;;;;;;;12.40;2.80;;;14.80;96.70;;;;;;4924209;29;20056;-78
2021/05/02 01:25:39;;;;;;;12.23;3.67;;;14.80;96.70;;;;;;4927522;29;20099;-78
2021/05/02 01:28:10;;;;;;;13.52;2.17;;;14.70;96.70;;;;;;4927149;29;20134;-78
2021/05/02 01:30:41;;;;;;;13.75;2.90;;;14.80;96.70;;;;;;4925470;29;20044;-78
2021/05/02 01:33:11;;;;;;;11.40;2.35;;;14.70;96.70;;;;;;4924899;29;20050;-77
2021/05/02 01:35:40;;;;;;;12.57;2.42;;;14.80;96.70;;;;;;4929897;29;20050;-78
2021/05/02 01:38:08;;;;;;;16.48;2.63;;;14.70;96.70;;;;;;4925394;29;20047;-78
2021/05/02 01:40:37;;;;;;;17.45;3.17;;;14.70;96.70;;;;;;4923775;29;20043;-78
2021/05/02 01:43:05;;;;;;;15.48;2.83;;;14.70;96.70;;;;;;4925887;29;20159;-76
2021/05/02 01:45:34;;;;;;;12.43;2.75;;;14.70;96.70;;;;;;4927375;29;20115;-78
2021/05/02 01:48:05;;;;;;;12.50;2.30;;;14.80;96.70;;;;;;4926824;29;20036;-78
2021/05/02 01:50:37;;;;;;;15.88;2.50;;;14.80;96.70;;;;;;4924938;29;20134;-78
2021/05/02 01:53:05;;;;;;;16.23;2.70;;;14.80;96.70;;;;;;4924965;29;20048;-77
2021/05/02 01:55:34;;;;;;;16.15;3.22;;;14.80;96.70;;;;;;4921029;29;20156;-78
2021/05/02 01:58:06;;;;;;;15.73;3.83;;;14.80;96.70;;;;;;4921890;28;20043;-78
2021/05/02 02:00:45;;;;;;;16.90;2.42;;;14.80;96.70;;;;;;4923059;29;20047;-78
2021/05/02 02:03:14;;;;;;;17.83;3.00;;;14.80;96.70;;;;;;4918473;29;20051;-78
2021/05/02 02:05:42;;;;;;;16.60;3.00;;;14.80;96.70;;;;;;4912424;29;20048;-78
2021/05/02 02:08:10;;;;;;;16.15;2.88;;;14.80;96.70;;;;;;4892542;29;20067;-78
2021/05/02 02:10:39;;;;;;;16.23;2.70;;;14.80;96.70;;;;;;4911089;29;20075;-77
2021/05/02 02:13:10;;;;;;;12.10;2.35;;;14.70;96.70;;;;;;4926471;29;20285;-77
2021/05/02 02:15:39;;;;;;;14.38;2.45;;;14.70;96.70;;;;;;4919640;29;20139;-78
2021/05/02 02:18:09;;;;;;;16.77;3.83;;;14.80;96.70;;;;;;4922361;29;20047;-77
2021/05/02 02:20:39;;;;;;;17.17;3.63;;;14.80;96.70;;;;;;4920597;29;20118;-77
2021/05/02 02:23:14;;;;;;;21.38;3.08;;;14.80;96.70;;;;;;4908532;29;20052;-78
2021/05/02 02:25:44;;;;;;;12.18;3.08;;;14.80;96.70;;;;;;4906293;29;20048;-78
2021/05/02 02:28:16;;;;;;;16.30;2.95;;;14.80;96.70;;;;;;4908363;29;20040;-78
2021/05/02 02:30:46;;;;;;;13.77;2.75;;;14.80;96.70;;;;;;4911980;29;20116;-78
2021/05/02 02:33:15;;;;;;;16.60;3.13;;;14.80;96.70;;;;;;4904505;29;20091;-78
2021/05/02 02:35:50;;;;;;;12.90;2.42;;;14.80;96.70;;;;;;4901886;29;20054;-78
2021/05/02 02:38:20;;;;;;;14.50;3.30;;;14.80;96.70;;;;;;4915077;29;20521;-78
2021/05/02 02:40:50;;;;;;;16.27;2.38;;;14.70;96.70;;;;;;4905000;29;20413;-78
2021/05/02 02:43:22;;;;;;;14.43;2.83;;;14.70;96.70;;;;;;4905586;29;20617;-77
2021/05/02 02:45:54;;;;;;;14.20;2.38;;;14.70;96.70;;;;;;4908127;29;20054;-78
2021/05/02 02:48:24;;;;;;;21.45;2.95;;;14.70;96.70;;;;;;4896744;29;20051;-78
2021/05/02 02:50:55;;;;;;;16.65;2.80;;;14.60;96.70;;;;;;4907994;29;20050;-78
2021/05/02 02:53:26;;;;;;;12.40;2.67;;;14.70;96.70;;;;;;4925438;29;20398;-77
2021/05/02 02:56:01;;;;;;;14.57;2.53;;;14.70;96.70;;;;;;4931989;29;20079;-78
2021/05/02 02:58:35;;;;;;;12.63;2.28;;;14.60;96.70;;;;;;4924385;29;20446;-77
2021/05/02 03:01:05;;;;;;;12.25;2.70;;;14.60;96.70;;;;;;4921504;29;20103;-77
2021/05/02 03:03:35;;;;;;;11.13;2.10;;;14.60;96.70;;;;;;4907222;29;20042;-77
2021/05/02 03:06:06;;;;;;;11.05;2.83;;;14.70;96.70;;;;;;4926054;29;21129;-77
2021/05/02 03:08:38;;;;;;;16.40;1.90;;;14.60;96.70;;;;;;4912022;29;20609;-79
2021/05/02 03:11:07;;;;;;;15.18;3.63;;;14.60;96.70;;;;;;4926884;29;20740;-79
2021/05/02 03:13:36;;;;;;;13.25;2.10;;;14.70;96.70;;;;;;4906432;29;20040;-79
2021/05/02 03:16:05;;;;;;;16.63;2.63;;;14.60;96.70;;;;;;4925250;29;20043;-78
2021/05/02 03:18:41;;;;;;;11.73;2.03;;;14.70;96.70;;;;;;4905761;29;20079;-80
2021/05/02 03:21:13;;;;;;;10.40;2.05;;;14.60;96.70;;;;;;4924453;29;20080;-76
2021/05/02 03:23:43;;;;;;;13.13;2.20;;;14.70;96.70;;;;;;4923666;29;20235;-75
2021/05/02 03:26:13;;;;;;;14.60;2.00;;;14.60;96.70;;;;;;4928459;29;20047;-76
2021/05/02 03:28:48;;;;;;;14.52;2.47;;;14.70;96.70;;;;;;4907978;29;20130;-76
2021/05/02 03:31:17;;;;;;;8.90;1.73;;;14.70;96.70;;;;;;4907112;29;20142;-76
2021/05/02 03:33:47;;;;;;;10.30;2.03;;;14.70;96.70;;;;;;4906404;29;20467;-77
2021/05/02 03:36:19;;;;;;;10.90;1.90;;;14.70;96.70;;;;;;4903802;29;20148;-76
2021/05/02 03:38:49;;;;;;;10.45;3.00;;;14.80;96.70;;;;;;4903482;29;20095;-75
2021/05/02 03:41:18;;;;;;;11.35;1.92;;;14.80;96.70;;;;;;4894570;29;20618;-76
2021/05/02 03:43:48;;;;;;;13.27;3.03;;;14.80;96.70;;;;;;4890326;29;20079;-76
2021/05/02 03:46:24;;;;;;;11.63;2.15;;;14.80;96.70;;;;;;4923896;29;20091;-76
2021/05/02 03:48:54;;;;;;;11.73;2.00;;;14.80;96.70;;;;;;4925853;29;20122;-76
2021/05/02 03:51:24;;;;;;;9.90;2.20;;;14.90;96.70;;;;;;4923102;29;20130;-76
2021/05/02 03:53:54;;;;;;;11.77;2.53;;;14.80;96.70;;;;;;4893382;29;20067;-76
2021/05/02 03:56:32;;;;;;;11.02;1.98;;;14.90;96.70;;;;;;4923312;29;20058;-76
2021/05/02 03:59:09;;;;;;;12.60;2.05;;;14.90;96.70;;;;;;4923282;29;20546;-77
2021/05/02 04:01:43;;;;;;;15.38;2.45;;;14.80;96.70;;;;;;4904928;29;20051;-76
2021/05/02 04:04:14;;;;;;;12.57;2.78;;;14.80;96.70;;;;;;4911546;28;20047;-76
2021/05/02 04:06:43;;;;;;;15.20;2.13;;;14.80;96.70;;;;;;4927626;28;20043;-78
2021/05/02 04:09:13;;;;;;;10.45;1.90;;;14.80;96.70;;;;;;4914163;28;20059;-76
2021/05/02 04:11:43;;;;;;;14.80;2.20;;;14.80;96.70;;;;;;4923529;28;20636;-76
2021/05/02 04:14:15;;;;;;;12.20;2.17;;;14.80;96.70;;;;;;4942404;28;20035;-76
2021/05/02 04:16:53;;;;;;;12.23;2.00;;;14.80;96.70;;;;;;4922165;28;20056;-76
2021/05/02 04:19:23;;;;;;;12.82;2.25;;;14.90;96.70;;;;;;4913618;28;20391;-76
2021/05/02 04:21:53;;;;;;;10.70;2.42;;;14.80;96.70;;;;;;4926715;28;20047;-76
2021/05/02 04:24:23;;;;;;;11.60;2.20;;;14.90;96.70;;;;;;4941800;28;20036;-76
2021/05/02 04:26:55;;;;;;;10.60;2.50;;;14.90;96.70;;;;;;4944876;28;20390;-76
2021/05/02 04:29:31;;;;;;;15.10;2.95;;;14.90;96.70;;;;;;4923345;28;20854;-76
2021/05/02 04:31:59;;;;;;;;;;;15.00;96.70;;;;;;4924354;28;20040;-75
2021/05/02 04:34:27;;;;;;;11.27;2.35;;;15.00;96.70;;;;;;4924697;28;19933;-76
2021/05/02 04:36:56;;;;;;;9.23;1.60;;;15.00;96.70;;;;;;4930294;28;20544;-76
2021/05/02 04:39:24;;;;;;;12.60;1.77;;;15.00;96.70;;;;;;4926313;28;20039;-76
2021/05/02 04:41:52;;;;;;;10.77;2.17;;;15.00;96.70;;;;;;4927144;28;20490;-76
2021/05/02 04:44:20;;;;;;;9.20;1.85;;;15.00;96.70;;;;;;4925328;28;20490;-76
2021/05/02 04:46:49;;;;;;;11.90;2.03;;;15.10;96.70;;;;;;4941418;28;20150;-76
2021/05/02 04:49:17;;;;;;;10.10;1.67;;;15.10;96.70;;;;;;4928840;28;20039;-76
2021/05/02 04:51:44;;;;;;;13.95;2.35;;;15.00;96.70;;;;;;4924624;28;20051;-76
2021/05/02 04:54:12;;;;;;;15.32;2.10;;;15.10;96.70;;;;;;4938498;28;20081;-76
2021/05/02 04:56:40;;;;;;;9.77;2.25;;;15.10;96.70;;;;;;4943496;28;20056;-76
2021/05/02 04:59:08;;;;;;;14.23;2.38;;;15.10;96.70;;;;;;4924574;28;20067;-76
2021/05/02 05:01:38;;;;;;;8.77;2.00;;;15.10;96.70;;;;;;4913016;28;20079;-75
2021/05/02 05:04:07;;;;;;;10.07;2.78;;;15.10;96.70;;;;;;4909924;29;20078;-76
2021/05/02 05:06:35;;;;;;;19.90;2.60;;;15.20;96.70;;;;;;4927071;29;20118;-76
2021/05/02 05:09:05;;;;;;;14.38;2.60;;;15.20;96.70;;;;;;4925867;29;20998;-77
2021/05/02 05:11:34;;;;;;;11.57;2.55;;;15.20;96.70;;;;;;4928465;29;20043;-77
2021/05/02 05:14:01;;;;;;;11.10;2.10;;;15.20;96.70;;;;;;4928412;29;20124;-75
2021/05/02 05:16:29;;;;;;;12.57;2.33;;;15.20;96.70;;;;;;4925316;29;20047;-76
2021/05/02 05:18:57;;;;;;;13.38;2.50;;;15.20;96.70;;;;;;4925137;29;20051;-77
2021/05/02 05:21:26;;;;;;;11.25;2.67;;;15.30;96.70;;;;;;4925479;29;20031;-76
2021/05/02 05:23:53;;;;;;;13.55;2.33;;;15.30;96.70;;;;;;4924949;29;20054;-76
2021/05/02 05:26:21;;;;;;;16.73;3.25;;;15.20;96.70;;;;;;4929145;29;20063;-79
2021/05/02 05:28:48;;;;;;;14.60;2.50;;;15.20;96.70;;;;;;4923287;29;20418;-77
2021/05/02 05:31:16;;;;;;;10.65;2.55;;;15.20;96.70;;;;;;4925554;29;20047;-77
2021/05/02 05:33:44;;;;;;;12.07;2.75;;;15.20;96.70;;;;;;4925411;29;20043;-76
2021/05/02 05:36:11;;;;;;;10.20;2.10;;;15.20;96.70;;;;;;4923762;29;20036;-76
2021/05/02 05:38:40;;;;;;;16.42;2.95;;;15.20;96.70;;;;;;4923453;29;20051;-76
2021/05/02 05:41:07;;;;;;;16.58;3.00;;;15.20;96.70;;;;;;4925633;29;20401;-76
2021/05/02 05:43:35;;;;;;;18.75;3.20;;;15.20;96.70;;;;;;4929011;29;20043;-77
2021/05/02 05:46:02;;;;;;;14.45;2.35;;;15.20;96.70;;;;;;4921814;29;20409;-76
2021/05/02 05:48:31;;;;;;;13.02;2.35;;;15.30;96.70;;;;;;4925017;29;20072;-76
2021/05/02 05:50:59;;;;;;;14.65;2.75;;;15.20;96.70;;;;;;4914346;29;20710;-76
2021/05/02 05:53:26;;;;;;;18.48;2.45;;;15.20;96.70;;;;;;4927841;29;20742;-76
2021/05/02 05:55:57;;;;;;;11.63;2.42;;;15.20;96.70;;;;;;4931929;29;20047;-76
2021/05/02 05:58:26;;;;;;;12.73;2.53;;;15.20;96.70;;;;;;4924832;29;20051;-76
2021/05/02 06:00:54;;;;;;;16.10;2.60;;;15.20;96.70;;;;;;4921907;29;20036;-77
2021/05/02 06:03:21;;;;;;;11.27;2.80;;;15.20;96.70;;;;;;4922162;29;20048;-77
2021/05/02 06:05:49;;;;;;;11.25;2.33;;;15.30;96.70;;;;;;4926322;28;20045;-76
2021/05/02 06:08:16;;;;;;;16.00;2.80;;;15.30;96.70;;;;;;4933591;28;20047;-76
2021/05/02 06:10:44;;;;;;;17.23;2.67;;;15.40;96.70;;;;;;4928276;28;20047;-75
2021/05/02 06:13:17;;;;;;;10.80;2.60;;;15.40;96.70;;;;;;4948943;28;20049;-76
2021/05/02 06:15:45;;;;;;;18.48;2.85;;;15.40;96.70;;;;;;4923866;28;20781;-77
2021/05/02 06:18:14;;;;;;;13.88;2.85;;;15.50;96.70;;;;;;4927356;29;20047;-76
2021/05/02 06:20:41;;;;;;;13.93;2.80;;;15.60;96.70;;;;;;4926595;28;20052;-76
2021/05/02 06:23:09;;;;;;;17.00;3.20;;;15.70;96.70;;;;;;4930578;28;20039;-76
2021/05/02 06:25:36;;;;;;;11.30;2.47;;;15.80;96.70;;;;;;4939973;28;20049;-78
2021/05/02 06:28:04;;;;;;;14.13;3.40;;;16.00;96.70;;;;;;4943778;28;20131;-76
2021/05/02 06:30:33;;;;;;;15.43;2.85;;;16.00;96.70;;;;;;4924924;28;20402;-76
2021/05/02 06:33:01;;;;;;;11.35;2.78;;;16.00;96.70;;;;;;4945513;28;20036;-77
2021/05/02 06:35:29;;;;;;;19.13;2.97;;;16.10;96.70;;;;;;4922607;28;20036;-76
2021/05/02 06:37:57;;;;;;;13.55;2.85;;;16.10;96.70;;;;;;4924552;28;20553;-76
2021/05/02 06:40:24;;;;;;;11.95;2.78;;;16.10;96.70;;;;;;4937342;28;20070;-77
2021/05/02 06:42:52;;;;;;;16.92;2.92;;;16.20;96.70;;;;;;4926607;29;20507;-76
2021/05/02 06:45:20;;;;;;;11.68;2.30;;;16.30;96.70;;;;;;4919440;29;20066;-76
2021/05/02 06:47:49;;;;;;;17.17;2.78;;;16.20;96.70;;;;;;4940598;28;20537;-76
2021/05/02 06:50:17;;;;;;;13.20;3.00;;;16.30;96.70;;;;;;4937978;28;20118;-76
2021/05/02 06:52:45;;;;;;;17.10;2.70;;;16.40;96.70;;;;;;4910478;28;20447;-76
2021/05/02 06:55:13;;;;;;;18.40;3.08;;;16.40;96.70;;;;;;4927770;28;20133;-76
2021/05/02 06:57:40;;;;;;;14.07;2.70;;;16.40;96.70;;;;;;4926144;28;20071;-78
2021/05/02 07:00:09;;;;;;;16.00;2.55;;;16.50;96.70;;;;;;4940763;28;20091;-78
2021/05/02 07:02:36;;;;;;;17.25;2.95;;;16.40;96.70;;;;;;4941436;28;20049;-78
2021/05/02 07:05:06;;;;;;;19.42;3.38;;;16.50;96.70;;;;;;4938788;28;20059;-78
2021/05/02 07:07:33;;;;;;;12.82;2.63;;;16.40;96.70;;;;;;4925970;28;20501;-79
2021/05/02 07:10:01;;;;;;;19.38;3.08;;;16.40;96.70;;;;;;4942373;28;20050;-78
2021/05/02 07:12:29;;;;;;;10.23;2.38;;;16.30;96.70;;;;;;4928911;28;20039;-80
2021/05/02 07:14:56;;;;;;;12.32;2.35;;;16.20;96.70;;;;;;4924765;28;20043;-78
2021/05/02 07:17:24;;;;;;;12.40;2.75;;;16.40;96.70;;;;;;4929677;28;20045;-78
2021/05/02 07:19:52;;;;;;;14.98;2.60;;;16.50;96.70;;;;;;4926175;28;20048;-78
2021/05/02 07:22:22;;;;;;;18.38;3.58;;;16.50;96.70;;;;;;4908873;28;20122;-77
2021/05/02 07:24:50;;;;;;;13.20;2.42;;;16.50;96.70;;;;;;4927658;28;20052;-79
2021/05/02 07:27:18;;;;;;;17.08;2.97;;;16.50;96.70;;;;;;4947084;28;20039;-78
2021/05/02 07:29:46;;;;;;;14.95;2.70;;;16.50;96.70;;;;;;4943562;28;20051;-78
2021/05/02 07:32:13;;;;;;;14.23;2.40;;;16.60;96.70;;;;;;4910692;28;20318;-78
2021/05/02 07:34:42;;;;;;;16.33;2.70;;;16.70;96.70;;;;;;4948454;28;20050;-78
2021/05/02 07:37:10;;;;;;;16.63;2.80;;;16.70;96.70;;;;;;4947665;28;21055;-78
2021/05/02 07:39:41;;;;;;;16.00;2.95;;;16.90;96.70;;;;;;4923047;28;20055;-79
2021/05/02 07:42:08;;;;;;;12.80;3.03;;;16.90;96.70;;;;;;4926157;28;20086;-79
2021/05/02 07:44:36;;;;;;;12.85;2.40;;;17.00;96.70;;;;;;4929869;28;20051;-81
2021/05/02 07:47:04;;;;;;;13.63;2.67;;;16.90;96.70;;;;;;4927066;28;20046;-79
2021/05/02 07:49:33;;;;;;;10.60;2.05;;;16.70;96.70;;;;;;4942926;28;20035;-80
2021/05/02 07:52:00;;;;;;;9.70;2.17;;;16.80;96.70;;;;;;4915501;28;20121;-80
2021/05/02 07:54:29;;;;;;;14.48;3.65;;;16.80;96.70;;;;;;4948026;28;20050;-80
2021/05/02 07:56:57;;;;;;;14.48;3.42;;;16.80;96.70;;;;;;4937888;28;20498;-80
2021/05/02 07:59:25;;;;;;;11.68;2.40;;;16.90;96.70;;;;;;4921634;28;20043;-81
2021/05/02 08:01:53;;;;;;;11.05;2.83;;;16.90;96.70;;;;;;4924821;28;20130;-77
2021/05/02 08:04:20;;;;;;;10.32;2.75;;;16.80;96.70;;;;;;4924057;28;20054;-76
2021/05/02 08:06:49;;;;;;;12.38;3.67;;;17.00;96.70;;;;;;4929567;28;20045;-79
2021/05/02 08:09:16;;;;;;;11.05;2.50;;;16.90;96.70;;;;;;4942151;28;20130;-78
2021/05/02 08:11:45;;;;;;;13.20;2.83;;;16.80;96.70;;;;;;4931401;28;20079;-79
2021/05/02 08:14:14;;;;;;;10.73;2.65;;;16.90;96.70;;;;;;4928370;28;20043;-78
2021/05/02 08:16:41;;;;;;;15.88;3.70;;;16.80;96.70;;;;;;4925907;29;20155;-80
2021/05/02 08:19:09;;;;;;;8.48;2.45;;;17.00;96.70;;;;;;4922569;29;20103;-76
2021/05/02 08:21:37;;;;;;;13.13;2.97;;;17.10;96.70;;;;;;4909477;28;20051;-79
2021/05/02 08:24:05;;;;;;;9.30;2.83;;;17.10;96.70;;;;;;4947786;28;20043;-78
2021/05/02 08:26:33;;;;;;;13.65;2.38;;;17.00;96.70;;;;;;4927565;28;20434;-75
2021/05/02 08:29:00;;;;;;;15.23;2.90;;;17.00;96.70;;;;;;4923758;29;20055;-77
2021/05/02 08:31:29;;;;;;;14.25;2.90;;;17.00;96.70;;;;;;4924596;28;20542;-78
2021/05/02 08:33:57;;;;;;;11.85;3.30;;;17.00;96.70;;;;;;4914603;29;20474;-80
2021/05/02 08:36:25;;;;;;;10.80;2.10;;;16.80;96.70;;;;;;4947556;28;20039;-76
2021/05/02 08:38:53;;;;;;;15.63;2.83;;;16.70;96.70;;;;;;4928466;28;20172;-76
2021/05/02 08:41:21;;;;;;;11.65;2.55;;;16.90;96.70;;;;;;4911200;29;20380;-75
2021/05/02 08:43:57;;;;;;;12.48;2.45;;;17.00;96.70;;;;;;4946975;28;20224;-76
2021/05/02 08:46:25;;;;;;;10.80;2.80;;;17.00;96.70;;;;;;4921473;29;20036;-76
2021/05/02 08:48:54;;;;;;;11.70;2.67;;;17.20;96.70;;;;;;4931644;28;20043;-76
2021/05/02 08:51:22;;;;;;;12.90;2.00;;;17.40;96.70;;;;;;4922365;28;20438;-76
2021/05/02 08:53:50;;;;;;;11.55;2.25;;;17.40;96.70;;;;;;4928082;28;20580;-75
2021/05/02 08:56:18;;;;;;;9.18;2.45;;;17.50;96.70;;;;;;4926112;28;20051;-76
2021/05/02 08:58:46;;;;;;;10.27;2.45;;;17.70;96.70;;;;;;4927037;28;20113;-76
2021/05/02 09:01:14;;;;;;;11.13;2.45;;;17.70;96.70;;;;;;4946411;28;20040;-76
2021/05/02 09:03:44;;;;;;;14.20;3.50;;;17.80;96.70;;;;;;4939952;28;20063;-76
2021/05/02 09:06:21;;;;;;;11.55;1.92;;;17.80;96.70;;;;;;4939385;28;20039;-76
2021/05/02 09:08:51;;;;;;;12.93;2.35;;;17.80;96.70;;;;;;4933205;28;20067;-77
2021/05/02 09:11:31;;;;;;;12.48;2.33;;;18.00;96.70;;;;;;4914036;28;20044;-77
2021/05/02 09:14:00;;;;;;;10.75;2.20;;;18.00;96.70;;;;;;4924264;28;20047;-77
2021/05/02 09:16:29;;;;;;;12.50;2.38;;;18.10;96.70;;;;;;4933355;28;20042;-76
2021/05/02 09:19:00;;;;;;;8.20;2.45;;;18.00;96.70;;;;;;4903772;29;20122;-76
2021/05/02 09:21:30;;;;;;;11.30;2.30;;;17.70;96.70;;;;;;4933598;28;20517;-77
2021/05/02 09:24:05;;;;;;;12.73;2.85;;;17.60;96.70;;;;;;4906852;29;20054;-76
2021/05/02 09:26:35;;;;;;;9.47;2.23;;;17.40;96.70;;;;;;4947122;28;20071;-76
2021/05/02 09:29:07;;;;;;;9.82;2.05;;;17.30;96.70;;;;;;4925009;28;20105;-76
2021/05/02 09:31:36;;;;;;;11.88;2.22;;;17.20;96.70;;;;;;4928003;28;20050;-76
2021/05/02 09:34:11;;;;;;;11.32;2.88;;;17.10;96.70;;;;;;4926067;28;20039;-75
2021/05/02 09:36:51;;;;;;;9.13;2.60;;;17.20;96.70;;;;;;4947805;28;20087;-77
2021/05/02 09:39:34;;;;;;;12.00;2.83;;;17.20;96.70;;;;;;4943143;28;20046;-76
2021/05/02 09:42:04;;;;;;;12.05;2.45;;;17.20;96.70;;;;;;4938131;28;20112;-76
2021/05/02 09:44:40;;;;;;;11.77;2.78;;;17.10;96.70;;;;;;4941570;28;20035;-78
2021/05/02 09:47:29;;;;;;;13.03;2.47;;;17.10;96.70;;;;;;4922631;29;20043;-77
2021/05/02 09:50:18;;;;;;;12.25;3.50;;;17.00;96.70;;;;;;4940505;28;20792;-77
2021/05/02 09:52:50;;;;;;;10.60;3.22;;;17.00;96.70;;;;;;4919700;28;20465;-76
2021/05/02 09:55:20;;;;;;;12.70;2.47;;;17.10;96.70;;;;;;4935459;28;20055;-76
2021/05/02 09:57:56;;;;;;;14.18;2.45;;;17.10;96.70;;;;;;4924672;28;20603;-76
2021/05/02 10:00:35;;;;;;;10.75;2.03;;;17.20;96.70;;;;;;4943858;28;20043;-76
2021/05/02 10:03:07;;;;;;;9.68;2.40;;;17.20;96.70;;;;;;4923637;29;20050;-77
2021/05/02 10:05:36;;;;;;;13.95;2.40;;;17.30;96.70;;;;;;4927216;29;20106;-77
2021/05/02 10:08:06;;;;;;;12.00;2.25;;;17.50;96.70;;;;;;4918736;29;20051;-77
2021/05/02 10:10:34;;;;;;;14.05;2.50;;;17.70;96.70;;;;;;4917949;28;20105;-77
2021/05/02 10:13:03;;;;;;;12.77;3.05;;;17.60;96.70;;;;;;4929079;28;20406;-77
2021/05/02 10:15:32;;;;;;;9.93;2.33;;;17.70;96.70;;;;;;4943835;28;20090;-78
2021/05/02 10:18:00;;;;;;;10.32;2.63;;;17.60;96.70;;;;;;4928166;29;20095;-78
2021/05/02 10:20:28;;;;;;;10.85;2.47;;;17.40;96.70;;;;;;4924481;29;20178;-76
2021/05/02 10:22:55;;;;;;;13.38;3.33;;;17.50;96.70;;;;;;4929522;29;20568;-76
2021/05/02 10:25:25;;;;;;;9.43;2.50;;;17.50;96.70;;;;;;4912690;29;20138;-77
2021/05/02 10:27:54;;;;;;;15.57;6.90;;;17.50;96.70;;;;;;4925291;28;20548;-77
2021/05/02 10:30:28;;;;;;;13.73;2.90;;;17.70;96.70;;;;;;4928104;29;20043;-77
2021/05/02 10:33:02;;;;;;;11.80;2.33;;;17.70;96.70;;;;;;4927514;29;20397;-76
2021/05/02 10:35:46;;;;;;;8.32;2.05;;;17.60;96.70;;;;;;4928084;28;20043;-76
2021/05/02 10:38:19;;;;;;;11.05;2.45;;;17.70;96.70;;;;;;4945134;28;20050;-75
2021/05/02 10:40:48;;;;;;;8.90;1.80;;;17.60;96.70;;;;;;4943438;28;20042;-79
2021/05/02 10:43:30;;;;;;;12.07;2.80;;;17.60;96.70;;;;;;4929097;28;20042;-76
2021/05/02 10:45:58;;;;;;;8.05;2.08;;;17.60;96.70;;;;;;4923013;28;20047;-76
2021/05/02 10:48:45;;;;;;;6.80;1.92;;;17.60;96.70;;;;;;4941090;28;20039;-76
2021/05/02 10:51:29;;;;;;;12.07;2.33;;;17.50;96.70;;;;;;4927397;28;20042;-76
2021/05/02 10:54:18;;;;;;;9.60;1.80;;;17.50;96.70;;;;;;4920703;28;20039;-76
2021/05/02 10:56:53;;;;;;;11.18;2.40;;;17.60;96.70;;;;;;4937891;28;20110;-77
2021/05/02 10:59:24;;;;;;;11.35;2.03;;;17.50;96.30;;;;;;4928807;28;20047;-76
2021/05/02 11:01:53;;;;;;;11.75;2.55;;;17.60;96.70;;;;;;4924263;28;20075;-75
2021/05/02 11:04:56;;;;;;;10.70;2.00;;;17.60;96.70;;;;;;4943601;28;20065;-76
2021/05/02 11:07:34;;;;;;;10.73;1.75;;;17.70;96.70;;;;;;4940449;28;20047;-76
2021/05/02 11:10:03;;;;;;;10.02;2.10;;;17.80;96.70;;;;;;4925201;28;20210;-76
2021/05/02 11:12:32;;;;;;;8.35;2.05;;;17.70;96.60;;;;;;4927808;28;20566;-76
2021/05/02 11:15:01;;;;;;;10.75;2.47;;;17.90;96.70;;;;;;4936235;28;20525;-77
2021/05/02 11:17:30;;;;;;;12.10;2.30;;;17.90;96.40;;;;;;4926865;28;20127;-76
2021/05/02 11:19:59;;;;;;;8.40;1.75;;;18.00;96.40;;;;;;4941500;28;20031;-75
2021/05/02 11:22:28;;;;;;;10.65;2.15;;;18.10;95.40;;;;;;4927026;28;20046;-76
2021/05/02 11:25:07;;;;;;;9.48;2.00;;;18.10;95.00;;;;;;4928913;28;20480;-76
2021/05/02 11:27:53;;;;;;;10.27;2.00;;;18.10;95.40;;;;;;4924443;28;20069;-76
2021/05/02 11:30:26;;;;;;;9.68;2.13;;;18.20;95.80;;;;;;4907448;28;20467;-75
2021/05/02 11:32:56;;;;;;;9.65;2.42;;;18.40;96.30;;;;;;4910570;28;20047;-77
2021/05/02 11:35:51;;;;;;;11.05;2.55;;;18.40;96.00;;;;;;4910519;28;20084;-76
2021/05/02 11:38:21;;;;;;;9.30;2.00;;;18.50;94.50;;;;;;4926085;28;20366;-76
2021/05/02 11:40:59;;;;;;;13.48;2.05;;;18.50;95.10;;;;;;4944986;28;20244;-77
2021/05/02 11:43:29;;;;;;;6.15;1.70;;;18.50;94.20;;;;;;4916740;28;20058;-76
2021/05/02 11:45:59;;;;;;;7.53;2.47;;;18.60;93.80;;;;;;4942407;28;20074;-76
2021/05/02 11:48:28;;;;;;;5.10;1.95;;;18.80;92.60;;;;;;4908549;28;20043;-76
2021/05/02 11:50:59;;;;;;;11.80;2.55;;;18.80;93.30;;;;;;4909190;28;20043;-76
2021/05/02 11:53:42;;;;;;;9.40;2.22;;;18.90;93.30;;;;;;4922956;28;20043;-76
2021/05/02 11:56:21;;;;;;;10.05;1.95;;;18.90;92.40;;;;;;4939034;28;20075;-76
2021/05/02 11:58:51;;;;;;;11.32;2.20;;;18.90;91.40;;;;;;4929060;28;20701;-76
2021/05/02 12:01:27;;;;;;;9.15;2.88;;;19.20;93.20;;;;;;4913040;28;20709;-78
2021/05/02 12:04:02;;;;;;;10.50;2.25;;;19.20;91.70;;;;;;4927208;28;20836;-76
2021/05/02 12:06:31;;;;;;;9.50;1.77;;;19.20;92.40;;;;;;4945444;28;20039;-76
2021/05/02 12:09:01;;;;;;;8.13;1.70;;;19.30;92.00;;;;;;4944028;28;20070;-77
2021/05/02 12:11:29;;;;;;;7.20;1.70;;;19.10;89.60;;;;;;4924991;28;20134;-77
2021/05/02 12:13:58;;;;;;;6.40;1.65;;;19.00;90.10;;;;;;4913977;28;20043;-76
2021/05/02 12:16:27;;;;;;;9.73;1.95;;;19.00;89.70;;;;;;4932633;28;20430;-78
2021/05/02 12:19:01;;;;;;;8.85;1.92;;;19.10;89.80;;;;;;4929711;28;20052;-76
2021/05/02 12:21:32;;;;;;;9.23;1.92;;;19.00;88.70;;;;;;4942933;28;20617;-75
2021/05/02 12:24:08;;;;;;;10.07;1.83;;;19.00;90.10;;;;;;4933529;28;20441;-76
2021/05/02 12:26:42;;;;;;;9.38;2.15;;;19.30;91.90;;;;;;4929812;29;20055;-77
2021/05/02 12:29:13;;;;;;;9.13;2.05;;;19.60;91.10;;;;;;4942424;28;20043;-76
2021/05/02 12:31:42;;;;;;;11.60;1.95;;;19.50;89.00;;;;;;4944947;28;20071;-79
2021/05/02 12:34:11;;;;;;;10.10;1.95;;;19.10;90.40;;;;;;4933374;28;20136;-77
2021/05/02 12:36:39;;;;;;;8.90;2.08;;;19.10;90.80;;;;;;4929123;28;20089;-76
2021/05/02 12:39:09;;;;;;;7.60;1.88;;;19.20;91.10;;;;;;4950910;28;20046;-77
2021/05/02 12:41:38;;;;;;;9.85;2.65;;;19.30;92.30;;;;;;4949910;28;20516;-76
2021/05/02 12:44:17;;;;;;;6.50;2.58;;;19.30;91.80;;;;;;4929972;28;20400;-76
2021/05/02 12:46:46;;;;;;;8.10;1.90;;;19.40;92.40;;;;;;4928188;28;20039;-76
2021/05/02 12:49:20;;;;;;;9.98;2.45;;;19.20;92.00;;;;;;4928265;28;20470;-76
2021/05/02 12:51:51;;;;;;;7.53;1.98;;;19.20;91.20;;;;;;4917281;28;20054;-78
2021/05/02 12:54:21;;;;;;;12.35;2.30;;;19.10;91.90;;;;;;4928578;29;20470;-77
2021/05/02 12:57:09;;;;;;;7.82;2.20;;;19.20;91.20;;;;;;4945770;28;20122;-76